sensor_id;sensor_type;location;lat;lon;timestamp;P1;durP1;ratioP1;P2;durP2;ratioP2
11522;SDS011;70090;43.208;27.904;2024-01-10T00:02:26;18.53;;;10.33;;
11522;SDS011;70090;43.208;27.904;2024-01-10T00:04:53;18.37;;;9.97;;
11522;SDS011;70090;43.208;27.904;2024-01-10T00:07:20;11.10;;;6.77;;
11522;SDS011;70090;43.208;27.904;2024-01-10T00:09:48;12.03;;;6.50;;
11522;SDS011;70090;43.208;27.904;2024-01-10T00:12:15;14.07;;;7.17;;
11522;SDS011;70090;43.208;27.904;2024-01-10T00:14:43;10.30;;;6.63;;
11522;SDS011;70090;43.208;27.904;2024-01-10T00:17:10;17.73;;;8.80;;
11522;SDS011;70090;43.208;27.904;2024-01-10T00:19:37;14.90;;;7.57;;
11522;SDS011;70090;43.208;27.904;2024-01-10T00:22:04;12.93;;;6.83;;
11522;SDS011;70090;43.208;27.904;2024-01-10T00:24:31;9.97;;;4.93;;
11522;SDS011;70090;43.208;27.904;2024-01-10T00:26:59;9.90;;;5.10;;
11522;SDS011;70090;43.208;27.904;2024-01-10T00:29:26;8.13;;;5.17;;
11522;SDS011;70090;43.208;27.904;2024-01-10T00:31:53;9.97;;;6.23;;
11522;SDS011;70090;43.208;27.904;2024-01-10T00:34:24;11.53;;;6.80;;
11522;SDS011;70090;43.208;27.904;2024-01-10T00:36:52;9.50;;;5.63;;
11522;SDS011;70090;43.208;27.904;2024-01-10T00:39:19;10.23;;;6.37;;
11522;SDS011;70090;43.208;27.904;2024-01-10T00:41:46;14.93;;;7.43;;
11522;SDS011;70090;43.208;27.904;2024-01-10T00:44:14;11.27;;;6.50;;
11522;SDS011;70090;43.208;27.904;2024-01-10T00:46:41;11.47;;;6.57;;
11522;SDS011;70090;43.208;27.904;2024-01-10T00:49:08;9.83;;;6.40;;
11522;SDS011;70090;43.208;27.904;2024-01-10T00:51:35;10.03;;;6.37;;
11522;SDS011;70090;43.208;27.904;2024-01-10T00:54:02;9.53;;;6.57;;
11522;SDS011;70090;43.208;27.904;2024-01-10T00:56:29;11.87;;;6.90;;
11522;SDS011;70090;43.208;27.904;2024-01-10T00:58:56;11.07;;;6.67;;
11522;SDS011;70090;43.208;27.904;2024-01-10T01:01:25;9.23;;;6.20;;
11522;SDS011;70090;43.208;27.904;2024-01-10T01:03:52;8.87;;;6.27;;
11522;SDS011;70090;43.208;27.904;2024-01-10T01:06:19;9.53;;;6.03;;
11522;SDS011;70090;43.208;27.904;2024-01-10T01:08:46;9.90;;;5.80;;
11522;SDS011;70090;43.208;27.904;2024-01-10T01:11:13;9.80;;;5.00;;
11522;SDS011;70090;43.208;27.904;2024-01-10T01:13:40;11.40;;;6.40;;
11522;SDS011;70090;43.208;27.904;2024-01-10T01:16:08;8.80;;;5.63;;
11522;SDS011;70090;43.208;27.904;2024-01-10T01:18:36;10.97;;;6.80;;
11522;SDS011;70090;43.208;27.904;2024-01-10T01:21:03;8.43;;;4.60;;
11522;SDS011;70090;43.208;27.904;2024-01-10T01:23:30;9.57;;;6.20;;
11522;SDS011;70090;43.208;27.904;2024-01-10T01:25:57;11.20;;;6.40;;
11522;SDS011;70090;43.208;27.904;2024-01-10T01:28:25;14.57;;;6.60;;
11522;SDS011;70090;43.208;27.904;2024-01-10T01:30:53;9.23;;;5.87;;
11522;SDS011;70090;43.208;27.904;2024-01-10T01:33:20;9.50;;;6.40;;
11522;SDS011;70090;43.208;27.904;2024-01-10T01:35:48;10.90;;;6.27;;
11522;SDS011;70090;43.208;27.904;2024-01-10T01:38:15;10.27;;;6.40;;
11522;SDS011;70090;43.208;27.904;2024-01-10T01:40:42;9.27;;;6.37;;
11522;SDS011;70090;43.208;27.904;2024-01-10T01:45:55;9.43;;;6.23;;
11522;SDS011;70090;43.208;27.904;2024-01-10T01:48:23;11.90;;;6.70;;
11522;SDS011;70090;43.208;27.904;2024-01-10T01:50:53;10.07;;;6.20;;
11522;SDS011;70090;43.208;27.904;2024-01-10T01:53:23;11.03;;;6.67;;
11522;SDS011;70090;43.208;27.904;2024-01-10T01:55:50;11.33;;;6.63;;
11522;SDS011;70090;43.208;27.904;2024-01-10T01:58:18;10.50;;;6.50;;
11522;SDS011;70090;43.208;27.904;2024-01-10T02:00:47;12.90;;;6.47;;
11522;SDS011;70090;43.208;27.904;2024-01-10T02:03:14;9.50;;;6.30;;
11522;SDS011;70090;43.208;27.904;2024-01-10T02:05:41;13.20;;;7.50;;
11522;SDS011;70090;43.208;27.904;2024-01-10T02:08:10;11.30;;;6.33;;
11522;SDS011;70090;43.208;27.904;2024-01-10T02:10:37;10.63;;;6.50;;
11522;SDS011;70090;43.208;27.904;2024-01-10T02:13:04;11.23;;;7.43;;
11522;SDS011;70090;43.208;27.904;2024-01-10T02:15:33;12.07;;;7.17;;
11522;SDS011;70090;43.208;27.904;2024-01-10T02:18:01;12.57;;;7.10;;
11522;SDS011;70090;43.208;27.904;2024-01-10T02:20:28;11.13;;;6.80;;
11522;SDS011;70090;43.208;27.904;2024-01-10T02:22:55;13.63;;;6.90;;
11522;SDS011;70090;43.208;27.904;2024-01-10T02:25:23;12.73;;;7.70;;
11522;SDS011;70090;43.208;27.904;2024-01-10T02:27:50;10.27;;;6.10;;
11522;SDS011;70090;43.208;27.904;2024-01-10T02:30:17;10.07;;;6.37;;
11522;SDS011;70090;43.208;27.904;2024-01-10T02:32:44;11.73;;;7.20;;
11522;SDS011;70090;43.208;27.904;2024-01-10T02:35:11;11.77;;;7.33;;
11522;SDS011;70090;43.208;27.904;2024-01-10T02:37:38;13.53;;;8.10;;
11522;SDS011;70090;43.208;27.904;2024-01-10T02:40:06;13.17;;;7.73;;
11522;SDS011;70090;43.208;27.904;2024-01-10T02:42:35;10.87;;;7.30;;
11522;SDS011;70090;43.208;27.904;2024-01-10T02:45:02;9.67;;;6.17;;
11522;SDS011;70090;43.208;27.904;2024-01-10T02:47:30;9.67;;;6.20;;
11522;SDS011;70090;43.208;27.904;2024-01-10T02:49:57;11.53;;;6.43;;
11522;SDS011;70090;43.208;27.904;2024-01-10T02:52:24;10.73;;;6.53;;
11522;SDS011;70090;43.208;27.904;2024-01-10T02:54:51;11.40;;;5.90;;
11522;SDS011;70090;43.208;27.904;2024-01-10T02:57:18;10.03;;;5.90;;
11522;SDS011;70090;43.208;27.904;2024-01-10T02:59:47;11.13;;;6.83;;
11522;SDS011;70090;43.208;27.904;2024-01-10T03:02:14;12.20;;;7.70;;
11522;SDS011;70090;43.208;27.904;2024-01-10T03:04:41;10.23;;;6.50;;
11522;SDS011;70090;43.208;27.904;2024-01-10T03:07:09;10.03;;;6.87;;
11522;SDS011;70090;43.208;27.904;2024-01-10T03:09:36;11.30;;;6.17;;
11522;SDS011;70090;43.208;27.904;2024-01-10T03:12:03;10.80;;;6.80;;
11522;SDS011;70090;43.208;27.904;2024-01-10T03:14:32;11.70;;;6.83;;
11522;SDS011;70090;43.208;27.904;2024-01-10T03:17:01;15.67;;;8.43;;
11522;SDS011;70090;43.208;27.904;2024-01-10T03:19:28;15.07;;;7.60;;
11522;SDS011;70090;43.208;27.904;2024-01-10T03:21:55;11.30;;;6.97;;
11522;SDS011;70090;43.208;27.904;2024-01-10T03:24:22;10.70;;;6.20;;
11522;SDS011;70090;43.208;27.904;2024-01-10T03:26:52;10.90;;;7.30;;
11522;SDS011;70090;43.208;27.904;2024-01-10T03:29:19;12.60;;;7.53;;
11522;SDS011;70090;43.208;27.904;2024-01-10T03:31:46;12.37;;;7.27;;
11522;SDS011;70090;43.208;27.904;2024-01-10T03:34:14;14.70;;;7.50;;
11522;SDS011;70090;43.208;27.904;2024-01-10T03:36:43;11.90;;;7.53;;
11522;SDS011;70090;43.208;27.904;2024-01-10T03:39:10;11.50;;;7.27;;
11522;SDS011;70090;43.208;27.904;2024-01-10T03:41:37;12.70;;;7.10;;
11522;SDS011;70090;43.208;27.904;2024-01-10T03:44:04;11.90;;;7.13;;
11522;SDS011;70090;43.208;27.904;2024-01-10T03:46:31;13.93;;;8.27;;
11522;SDS011;70090;43.208;27.904;2024-01-10T03:48:58;11.33;;;7.47;;
11522;SDS011;70090;43.208;27.904;2024-01-10T03:51:27;10.17;;;5.80;;
11522;SDS011;70090;43.208;27.904;2024-01-10T03:53:54;12.43;;;7.50;;
11522;SDS011;70090;43.208;27.904;2024-01-10T03:56:21;12.47;;;7.87;;
11522;SDS011;70090;43.208;27.904;2024-01-10T03:58:48;11.63;;;7.53;;
11522;SDS011;70090;43.208;27.904;2024-01-10T04:01:15;11.67;;;6.90;;
11522;SDS011;70090;43.208;27.904;2024-01-10T04:03:42;14.30;;;8.00;;
11522;SDS011;70090;43.208;27.904;2024-01-10T04:06:09;17.60;;;9.00;;
11522;SDS011;70090;43.208;27.904;2024-01-10T04:08:38;13.43;;;7.33;;
11522;SDS011;70090;43.208;27.904;2024-01-10T04:11:05;10.40;;;6.97;;
11522;SDS011;70090;43.208;27.904;2024-01-10T04:13:32;10.57;;;6.80;;
11522;SDS011;70090;43.208;27.904;2024-01-10T04:15:59;11.93;;;7.43;;
11522;SDS011;70090;43.208;27.904;2024-01-10T04:18:26;14.03;;;8.20;;
11522;SDS011;70090;43.208;27.904;2024-01-10T04:20:53;12.07;;;8.03;;
11522;SDS011;70090;43.208;27.904;2024-01-10T04:23:20;12.40;;;7.07;;
11522;SDS011;70090;43.208;27.904;2024-01-10T04:25:49;11.17;;;7.30;;
11522;SDS011;70090;43.208;27.904;2024-01-10T04:28:16;12.07;;;7.50;;
11522;SDS011;70090;43.208;27.904;2024-01-10T04:30:43;9.77;;;6.40;;
11522;SDS011;70090;43.208;27.904;2024-01-10T04:33:10;12.53;;;6.63;;
11522;SDS011;70090;43.208;27.904;2024-01-10T04:35:37;11.63;;;7.70;;
11522;SDS011;70090;43.208;27.904;2024-01-10T04:38:04;14.17;;;8.17;;
11522;SDS011;70090;43.208;27.904;2024-01-10T04:40:31;11.80;;;7.10;;
11522;SDS011;70090;43.208;27.904;2024-01-10T04:43:00;13.27;;;7.60;;
11522;SDS011;70090;43.208;27.904;2024-01-10T04:45:27;12.27;;;7.70;;
11522;SDS011;70090;43.208;27.904;2024-01-10T04:47:54;12.30;;;7.70;;
11522;SDS011;70090;43.208;27.904;2024-01-10T04:50:21;9.53;;;6.40;;
11522;SDS011;70090;43.208;27.904;2024-01-10T04:52:48;11.00;;;6.60;;
11522;SDS011;70090;43.208;27.904;2024-01-10T04:55:15;11.07;;;7.07;;
11522;SDS011;70090;43.208;27.904;2024-01-10T04:57:42;10.77;;;6.40;;
11522;SDS011;70090;43.208;27.904;2024-01-10T05:00:11;11.60;;;7.03;;
11522;SDS011;70090;43.208;27.904;2024-01-10T05:02:38;12.30;;;7.37;;
11522;SDS011;70090;43.208;27.904;2024-01-10T05:05:05;9.60;;;6.50;;
11522;SDS011;70090;43.208;27.904;2024-01-10T05:07:33;14.30;;;7.70;;
11522;SDS011;70090;43.208;27.904;2024-01-10T05:10:00;11.97;;;6.40;;
11522;SDS011;70090;43.208;27.904;2024-01-10T05:12:27;12.57;;;7.20;;
11522;SDS011;70090;43.208;27.904;2024-01-10T05:14:54;13.73;;;8.07;;
11522;SDS011;70090;43.208;27.904;2024-01-10T05:17:23;15.83;;;9.00;;
11522;SDS011;70090;43.208;27.904;2024-01-10T05:19:50;9.93;;;5.73;;
11522;SDS011;70090;43.208;27.904;2024-01-10T05:22:18;14.50;;;7.93;;
11522;SDS011;70090;43.208;27.904;2024-01-10T05:24:47;10.83;;;6.37;;
11522;SDS011;70090;43.208;27.904;2024-01-10T05:27:14;10.60;;;6.17;;
11522;SDS011;70090;43.208;27.904;2024-01-10T05:29:41;11.27;;;7.53;;
11522;SDS011;70090;43.208;27.904;2024-01-10T05:32:08;14.47;;;7.30;;
11522;SDS011;70090;43.208;27.904;2024-01-10T05:34:37;7.87;;;4.93;;
11522;SDS011;70090;43.208;27.904;2024-01-10T05:37:04;12.00;;;7.23;;
11522;SDS011;70090;43.208;27.904;2024-01-10T05:39:31;14.23;;;8.27;;
11522;SDS011;70090;43.208;27.904;2024-01-10T05:41:58;14.73;;;8.40;;
11522;SDS011;70090;43.208;27.904;2024-01-10T05:44:25;13.30;;;7.83;;
11522;SDS011;70090;43.208;27.904;2024-01-10T05:46:52;16.30;;;9.00;;
11522;SDS011;70090;43.208;27.904;2024-01-10T05:49:19;22.43;;;12.17;;
11522;SDS011;70090;43.208;27.904;2024-01-10T05:51:48;17.23;;;9.90;;
11522;SDS011;70090;43.208;27.904;2024-01-10T05:54:15;16.73;;;10.13;;
11522;SDS011;70090;43.208;27.904;2024-01-10T05:56:43;17.07;;;8.73;;
11522;SDS011;70090;43.208;27.904;2024-01-10T05:59:10;20.77;;;12.13;;
11522;SDS011;70090;43.208;27.904;2024-01-10T06:01:37;15.93;;;8.83;;
11522;SDS011;70090;43.208;27.904;2024-01-10T06:04:04;17.73;;;10.20;;
11522;SDS011;70090;43.208;27.904;2024-01-10T06:06:32;8.70;;;4.50;;
11522;SDS011;70090;43.208;27.904;2024-01-10T06:09:01;15.87;;;8.57;;
11522;SDS011;70090;43.208;27.904;2024-01-10T06:11:28;16.10;;;10.23;;
11522;SDS011;70090;43.208;27.904;2024-01-10T06:13:55;13.93;;;8.20;;
11522;SDS011;70090;43.208;27.904;2024-01-10T06:16:23;14.93;;;7.87;;
11522;SDS011;70090;43.208;27.904;2024-01-10T06:18:50;24.63;;;13.57;;
11522;SDS011;70090;43.208;27.904;2024-01-10T06:21:17;16.90;;;7.90;;
11522;SDS011;70090;43.208;27.904;2024-01-10T06:23:44;12.07;;;6.90;;
11522;SDS011;70090;43.208;27.904;2024-01-10T06:26:13;13.10;;;7.70;;
11522;SDS011;70090;43.208;27.904;2024-01-10T06:28:40;14.67;;;8.20;;
11522;SDS011;70090;43.208;27.904;2024-01-10T06:31:08;10.83;;;6.10;;
11522;SDS011;70090;43.208;27.904;2024-01-10T06:33:35;11.87;;;6.37;;
11522;SDS011;70090;43.208;27.904;2024-01-10T06:36:02;7.23;;;4.47;;
11522;SDS011;70090;43.208;27.904;2024-01-10T06:38:29;9.67;;;5.60;;
11522;SDS011;70090;43.208;27.904;2024-01-10T06:40:56;7.17;;;4.47;;
11522;SDS011;70090;43.208;27.904;2024-01-10T06:43:25;5.83;;;3.27;;
11522;SDS011;70090;43.208;27.904;2024-01-10T06:45:52;7.83;;;4.17;;
11522;SDS011;70090;43.208;27.904;2024-01-10T06:48:19;10.00;;;5.53;;
11522;SDS011;70090;43.208;27.904;2024-01-10T06:50:46;8.07;;;3.97;;
11522;SDS011;70090;43.208;27.904;2024-01-10T06:53:13;6.23;;;3.17;;
11522;SDS011;70090;43.208;27.904;2024-01-10T06:55:40;10.83;;;6.83;;
11522;SDS011;70090;43.208;27.904;2024-01-10T06:58:07;18.77;;;9.77;;
11522;SDS011;70090;43.208;27.904;2024-01-10T07:00:36;8.40;;;4.90;;
11522;SDS011;70090;43.208;27.904;2024-01-10T07:03:04;8.83;;;5.43;;
11522;SDS011;70090;43.208;27.904;2024-01-10T07:05:31;9.20;;;5.03;;
11522;SDS011;70090;43.208;27.904;2024-01-10T07:07:58;6.83;;;3.97;;
11522;SDS011;70090;43.208;27.904;2024-01-10T07:10:28;8.80;;;5.43;;
11522;SDS011;70090;43.208;27.904;2024-01-10T07:12:55;9.90;;;4.40;;
11522;SDS011;70090;43.208;27.904;2024-01-10T07:15:22;8.50;;;4.27;;
11522;SDS011;70090;43.208;27.904;2024-01-10T07:17:50;11.17;;;5.50;;
11522;SDS011;70090;43.208;27.904;2024-01-10T07:20:17;9.30;;;5.13;;
11522;SDS011;70090;43.208;27.904;2024-01-10T07:22:45;13.53;;;7.33;;
11522;SDS011;70090;43.208;27.904;2024-01-10T07:25:12;10.20;;;7.10;;
11522;SDS011;70090;43.208;27.904;2024-01-10T07:27:40;14.20;;;7.93;;
11522;SDS011;70090;43.208;27.904;2024-01-10T07:30:07;17.60;;;9.57;;
11522;SDS011;70090;43.208;27.904;2024-01-10T07:32:39;9.30;;;5.43;;
11522;SDS011;70090;43.208;27.904;2024-01-10T07:35:08;7.80;;;4.60;;
11522;SDS011;70090;43.208;27.904;2024-01-10T07:37:36;15.67;;;9.17;;
11522;SDS011;70090;43.208;27.904;2024-01-10T07:40:04;10.83;;;7.70;;
11522;SDS011;70090;43.208;27.904;2024-01-10T07:42:32;11.47;;;6.17;;
11522;SDS011;70090;43.208;27.904;2024-01-10T07:44:59;12.93;;;7.73;;
11522;SDS011;70090;43.208;27.904;2024-01-10T07:47:29;9.37;;;5.07;;
11522;SDS011;70090;43.208;27.904;2024-01-10T07:49:56;14.60;;;7.80;;
11522;SDS011;70090;43.208;27.904;2024-01-10T07:52:25;10.80;;;6.97;;
11522;SDS011;70090;43.208;27.904;2024-01-10T07:54:52;22.23;;;11.77;;
11522;SDS011;70090;43.208;27.904;2024-01-10T07:57:19;18.43;;;9.00;;
11522;SDS011;70090;43.208;27.904;2024-01-10T07:59:46;12.57;;;8.63;;
11522;SDS011;70090;43.208;27.904;2024-01-10T08:02:13;10.03;;;5.83;;
11522;SDS011;70090;43.208;27.904;2024-01-10T08:04:40;16.90;;;10.60;;
11522;SDS011;70090;43.208;27.904;2024-01-10T08:07:07;12.53;;;7.87;;
11522;SDS011;70090;43.208;27.904;2024-01-10T08:09:36;9.60;;;5.93;;
11522;SDS011;70090;43.208;27.904;2024-01-10T08:12:03;11.40;;;6.53;;
11522;SDS011;70090;43.208;27.904;2024-01-10T08:14:31;11.77;;;7.50;;
11522;SDS011;70090;43.208;27.904;2024-01-10T08:16:58;12.20;;;7.30;;
11522;SDS011;70090;43.208;27.904;2024-01-10T08:19:26;14.73;;;7.00;;
11522;SDS011;70090;43.208;27.904;2024-01-10T08:21:53;10.57;;;5.43;;
11522;SDS011;70090;43.208;27.904;2024-01-10T08:24:20;10.37;;;6.40;;
11522;SDS011;70090;43.208;27.904;2024-01-10T08:26:49;10.57;;;6.13;;
11522;SDS011;70090;43.208;27.904;2024-01-10T08:29:17;5.40;;;3.43;;
11522;SDS011;70090;43.208;27.904;2024-01-10T08:31:44;7.30;;;3.70;;
11522;SDS011;70090;43.208;27.904;2024-01-10T08:34:11;4.47;;;3.17;;
11522;SDS011;70090;43.208;27.904;2024-01-10T08:36:38;7.53;;;4.23;;
11522;SDS011;70090;43.208;27.904;2024-01-10T08:39:05;8.63;;;4.07;;
11522;SDS011;70090;43.208;27.904;2024-01-10T08:41:31;7.73;;;3.93;;
11522;SDS011;70090;43.208;27.904;2024-01-10T08:44:00;5.93;;;3.80;;
11522;SDS011;70090;43.208;27.904;2024-01-10T08:46:27;13.50;;;6.80;;
11522;SDS011;70090;43.208;27.904;2024-01-10T08:48:54;14.07;;;7.33;;
11522;SDS011;70090;43.208;27.904;2024-01-10T08:51:21;14.97;;;7.97;;
11522;SDS011;70090;43.208;27.904;2024-01-10T08:53:48;8.97;;;5.13;;
11522;SDS011;70090;43.208;27.904;2024-01-10T08:56:15;11.67;;;4.77;;
11522;SDS011;70090;43.208;27.904;2024-01-10T08:58:43;6.93;;;4.20;;
11522;SDS011;70090;43.208;27.904;2024-01-10T09:01:11;5.87;;;4.17;;
11522;SDS011;70090;43.208;27.904;2024-01-10T09:03:38;8.90;;;4.90;;
11522;SDS011;70090;43.208;27.904;2024-01-10T09:06:05;8.57;;;4.90;;
11522;SDS011;70090;43.208;27.904;2024-01-10T09:08:34;8.20;;;4.73;;
11522;SDS011;70090;43.208;27.904;2024-01-10T09:11:01;7.80;;;4.43;;
11522;SDS011;70090;43.208;27.904;2024-01-10T09:13:28;8.17;;;5.33;;
11522;SDS011;70090;43.208;27.904;2024-01-10T09:15:55;7.83;;;5.33;;
11522;SDS011;70090;43.208;27.904;2024-01-10T09:18:23;6.37;;;3.60;;
11522;SDS011;70090;43.208;27.904;2024-01-10T09:20:50;9.57;;;5.50;;
11522;SDS011;70090;43.208;27.904;2024-01-10T09:23:17;14.53;;;6.67;;
11522;SDS011;70090;43.208;27.904;2024-01-10T09:25:45;10.63;;;6.67;;
11522;SDS011;70090;43.208;27.904;2024-01-10T09:28:12;11.67;;;6.47;;
11522;SDS011;70090;43.208;27.904;2024-01-10T09:30:39;11.73;;;6.60;;
11522;SDS011;70090;43.208;27.904;2024-01-10T09:33:06;11.83;;;7.53;;
11522;SDS011;70090;43.208;27.904;2024-01-10T09:35:34;8.80;;;6.27;;
11522;SDS011;70090;43.208;27.904;2024-01-10T09:38:01;14.87;;;7.53;;
11522;SDS011;70090;43.208;27.904;2024-01-10T09:40:29;12.60;;;6.60;;
11522;SDS011;70090;43.208;27.904;2024-01-10T09:42:56;10.63;;;5.90;;
11522;SDS011;70090;43.208;27.904;2024-01-10T09:45:23;13.57;;;7.47;;
11522;SDS011;70090;43.208;27.904;2024-01-10T09:47:55;13.73;;;8.97;;
11522;SDS011;70090;43.208;27.904;2024-01-10T09:50:23;14.47;;;7.60;;
11522;SDS011;70090;43.208;27.904;2024-01-10T09:52:53;9.60;;;6.43;;
11522;SDS011;70090;43.208;27.904;2024-01-10T09:55:26;13.87;;;8.17;;
11522;SDS011;70090;43.208;27.904;2024-01-10T09:58:01;10.87;;;6.70;;
11522;SDS011;70090;43.208;27.904;2024-01-10T10:00:29;12.30;;;7.23;;
11522;SDS011;70090;43.208;27.904;2024-01-10T10:02:57;16.87;;;6.93;;
11522;SDS011;70090;43.208;27.904;2024-01-10T10:05:27;11.47;;;7.60;;
11522;SDS011;70090;43.208;27.904;2024-01-10T10:07:56;14.20;;;7.50;;
11522;SDS011;70090;43.208;27.904;2024-01-10T10:10:24;14.20;;;7.90;;
11522;SDS011;70090;43.208;27.904;2024-01-10T10:12:52;13.50;;;8.80;;
11522;SDS011;70090;43.208;27.904;2024-01-10T10:15:19;14.00;;;7.90;;
11522;SDS011;70090;43.208;27.904;2024-01-10T10:17:47;14.53;;;9.30;;
11522;SDS011;70090;43.208;27.904;2024-01-10T10:20:19;11.50;;;6.83;;
11522;SDS011;70090;43.208;27.904;2024-01-10T10:22:59;13.00;;;7.83;;
11522;SDS011;70090;43.208;27.904;2024-01-10T10:25:28;10.97;;;6.50;;
11522;SDS011;70090;43.208;27.904;2024-01-10T10:27:57;9.73;;;6.97;;
11522;SDS011;70090;43.208;27.904;2024-01-10T10:30:25;11.37;;;7.13;;
11522;SDS011;70090;43.208;27.904;2024-01-10T10:32:52;13.97;;;7.47;;
11522;SDS011;70090;43.208;27.904;2024-01-10T10:35:19;11.73;;;7.73;;
11522;SDS011;70090;43.208;27.904;2024-01-10T10:37:47;13.00;;;6.93;;
11522;SDS011;70090;43.208;27.904;2024-01-10T10:40:16;10.73;;;6.97;;
11522;SDS011;70090;43.208;27.904;2024-01-10T10:42:44;11.87;;;6.97;;
11522;SDS011;70090;43.208;27.904;2024-01-10T10:45:14;13.13;;;8.30;;
11522;SDS011;70090;43.208;27.904;2024-01-10T10:47:43;11.37;;;8.13;;
11522;SDS011;70090;43.208;27.904;2024-01-10T10:50:19;9.57;;;5.83;;
11522;SDS011;70090;43.208;27.904;2024-01-10T10:52:49;9.87;;;5.13;;
11522;SDS011;70090;43.208;27.904;2024-01-10T10:55:18;10.87;;;6.23;;
11522;SDS011;70090;43.208;27.904;2024-01-10T10:57:46;11.60;;;7.23;;
11522;SDS011;70090;43.208;27.904;2024-01-10T11:00:14;12.83;;;7.10;;
11522;SDS011;70090;43.208;27.904;2024-01-10T11:02:43;10.80;;;5.63;;
11522;SDS011;70090;43.208;27.904;2024-01-10T11:05:11;12.17;;;7.37;;
11522;SDS011;70090;43.208;27.904;2024-01-10T11:07:39;12.10;;;7.50;;
11522;SDS011;70090;43.208;27.904;2024-01-10T11:10:10;14.23;;;9.20;;
11522;SDS011;70090;43.208;27.904;2024-01-10T11:16:01;15.23;;;7.80;;
11522;SDS011;70090;43.208;27.904;2024-01-10T11:19:00;11.93;;;7.77;;
11522;SDS011;70090;43.208;27.904;2024-01-10T11:21:45;11.60;;;7.40;;
11522;SDS011;70090;43.208;27.904;2024-01-10T11:24:24;14.03;;;8.50;;
11522;SDS011;70090;43.208;27.904;2024-01-10T11:26:58;13.13;;;8.17;;
11522;SDS011;70090;43.208;27.904;2024-01-10T11:29:37;17.20;;;9.30;;
11522;SDS011;70090;43.208;27.904;2024-01-10T11:32:05;20.70;;;10.83;;
11522;SDS011;70090;43.208;27.904;2024-01-10T11:34:35;15.00;;;9.70;;
11522;SDS011;70090;43.208;27.904;2024-01-10T11:37:11;15.20;;;10.50;;
11522;SDS011;70090;43.208;27.904;2024-01-10T11:39:40;13.90;;;8.27;;
11522;SDS011;70090;43.208;27.904;2024-01-10T11:42:09;11.27;;;7.97;;
11522;SDS011;70090;43.208;27.904;2024-01-10T11:44:47;10.40;;;7.07;;
11522;SDS011;70090;43.208;27.904;2024-01-10T11:47:16;13.60;;;8.27;;
11522;SDS011;70090;43.208;27.904;2024-01-10T11:49:55;13.83;;;9.03;;
11522;SDS011;70090;43.208;27.904;2024-01-10T11:52:23;12.77;;;8.37;;
11522;SDS011;70090;43.208;27.904;2024-01-10T11:54:50;15.37;;;8.40;;
11522;SDS011;70090;43.208;27.904;2024-01-10T11:57:21;19.73;;;10.90;;
11522;SDS011;70090;43.208;27.904;2024-01-10T11:59:51;15.50;;;9.53;;
11522;SDS011;70090;43.208;27.904;2024-01-10T12:02:20;14.20;;;7.83;;
11522;SDS011;70090;43.208;27.904;2024-01-10T12:04:48;15.17;;;8.97;;
11522;SDS011;70090;43.208;27.904;2024-01-10T12:07:16;10.47;;;6.70;;
11522;SDS011;70090;43.208;27.904;2024-01-10T12:09:44;10.00;;;6.87;;
11522;SDS011;70090;43.208;27.904;2024-01-10T12:12:12;11.90;;;6.73;;
11522;SDS011;70090;43.208;27.904;2024-01-10T12:14:39;12.30;;;7.43;;
11522;SDS011;70090;43.208;27.904;2024-01-10T12:17:07;13.17;;;7.33;;
11522;SDS011;70090;43.208;27.904;2024-01-10T12:19:34;13.93;;;8.07;;
11522;SDS011;70090;43.208;27.904;2024-01-10T12:22:03;12.83;;;7.60;;
11522;SDS011;70090;43.208;27.904;2024-01-10T12:24:31;10.00;;;6.53;;
11522;SDS011;70090;43.208;27.904;2024-01-10T12:26:58;11.10;;;6.77;;
11522;SDS011;70090;43.208;27.904;2024-01-10T12:29:25;10.13;;;6.50;;
11522;SDS011;70090;43.208;27.904;2024-01-10T12:31:52;15.87;;;7.80;;
11522;SDS011;70090;43.208;27.904;2024-01-10T12:34:21;12.20;;;7.50;;
11522;SDS011;70090;43.208;27.904;2024-01-10T12:36:48;9.70;;;6.63;;
11522;SDS011;70090;43.208;27.904;2024-01-10T12:39:15;11.57;;;7.57;;
11522;SDS011;70090;43.208;27.904;2024-01-10T12:41:43;9.13;;;6.17;;
11522;SDS011;70090;43.208;27.904;2024-01-10T12:44:11;10.50;;;6.67;;
11522;SDS011;70090;43.208;27.904;2024-01-10T12:46:48;11.10;;;7.20;;
11522;SDS011;70090;43.208;27.904;2024-01-10T12:49:17;8.60;;;5.97;;
11522;SDS011;70090;43.208;27.904;2024-01-10T12:51:46;17.77;;;10.97;;
11522;SDS011;70090;43.208;27.904;2024-01-10T12:54:14;21.33;;;12.67;;
11522;SDS011;70090;43.208;27.904;2024-01-10T12:56:42;8.80;;;5.67;;
11522;SDS011;70090;43.208;27.904;2024-01-10T12:59:09;18.33;;;9.50;;
11522;SDS011;70090;43.208;27.904;2024-01-10T13:01:36;12.00;;;8.43;;
11522;SDS011;70090;43.208;27.904;2024-01-10T13:04:03;15.10;;;9.43;;
11522;SDS011;70090;43.208;27.904;2024-01-10T13:06:31;10.97;;;7.03;;
11522;SDS011;70090;43.208;27.904;2024-01-10T13:08:59;12.00;;;8.53;;
11522;SDS011;70090;43.208;27.904;2024-01-10T13:11:26;19.33;;;11.77;;
11522;SDS011;70090;43.208;27.904;2024-01-10T13:13:55;15.00;;;9.87;;
11522;SDS011;70090;43.208;27.904;2024-01-10T13:16:22;14.10;;;9.33;;
11522;SDS011;70090;43.208;27.904;2024-01-10T13:18:49;12.43;;;7.90;;
11522;SDS011;70090;43.208;27.904;2024-01-10T13:21:18;14.00;;;9.07;;
11522;SDS011;70090;43.208;27.904;2024-01-10T13:23:45;15.33;;;10.23;;
11522;SDS011;70090;43.208;27.904;2024-01-10T13:26:14;16.87;;;9.80;;
11522;SDS011;70090;43.208;27.904;2024-01-10T13:28:41;15.43;;;9.77;;
11522;SDS011;70090;43.208;27.904;2024-01-10T13:31:08;15.77;;;9.27;;
11522;SDS011;70090;43.208;27.904;2024-01-10T13:33:35;15.57;;;10.70;;
11522;SDS011;70090;43.208;27.904;2024-01-10T13:36:03;15.47;;;9.50;;
11522;SDS011;70090;43.208;27.904;2024-01-10T13:38:31;17.57;;;9.97;;
11522;SDS011;70090;43.208;27.904;2024-01-10T13:40:58;16.87;;;10.03;;
11522;SDS011;70090;43.208;27.904;2024-01-10T13:43:27;14.63;;;9.87;;
11522;SDS011;70090;43.208;27.904;2024-01-10T13:45:54;17.67;;;10.40;;
11522;SDS011;70090;43.208;27.904;2024-01-10T13:48:21;19.77;;;12.70;;
11522;SDS011;70090;43.208;27.904;2024-01-10T13:50:48;18.90;;;12.33;;
11522;SDS011;70090;43.208;27.904;2024-01-10T13:53:15;15.00;;;9.23;;
11522;SDS011;70090;43.208;27.904;2024-01-10T13:55:42;14.90;;;8.87;;
11522;SDS011;70090;43.208;27.904;2024-01-10T13:58:11;18.77;;;11.17;;
11522;SDS011;70090;43.208;27.904;2024-01-10T14:00:40;16.93;;;10.27;;
11522;SDS011;70090;43.208;27.904;2024-01-10T14:03:07;20.90;;;11.80;;
11522;SDS011;70090;43.208;27.904;2024-01-10T14:05:34;21.77;;;11.87;;
11522;SDS011;70090;43.208;27.904;2024-01-10T14:08:01;19.37;;;11.27;;
11522;SDS011;70090;43.208;27.904;2024-01-10T14:10:28;22.50;;;14.33;;
11522;SDS011;70090;43.208;27.904;2024-01-10T14:12:55;30.07;;;16.80;;
11522;SDS011;70090;43.208;27.904;2024-01-10T14:15:22;35.20;;;19.67;;
11522;SDS011;70090;43.208;27.904;2024-01-10T14:17:50;31.10;;;18.00;;
11522;SDS011;70090;43.208;27.904;2024-01-10T14:20:17;19.97;;;12.70;;
11522;SDS011;70090;43.208;27.904;2024-01-10T14:22:46;27.80;;;15.47;;
11522;SDS011;70090;43.208;27.904;2024-01-10T14:25:15;23.03;;;14.33;;
11522;SDS011;70090;43.208;27.904;2024-01-10T14:27:42;27.53;;;17.23;;
11522;SDS011;70090;43.208;27.904;2024-01-10T14:30:09;26.20;;;17.07;;
11522;SDS011;70090;43.208;27.904;2024-01-10T14:32:39;26.47;;;16.93;;
11522;SDS011;70090;43.208;27.904;2024-01-10T14:35:07;32.00;;;19.07;;